Time;durP1;ratioP1;P1;durP2;ratioP2;P2;SDS_P1;SDS_P2;PMS_P1;PMS_P2;Temp;Humidity;BMP_temperature;BMP_pressure;BME280_temperature;BME280_humidity;BME280_pressure;Samples;Min_cycle;Max_cycle;Signal;HPM_P1;HPM_P2
2022/03/17 00:01:24;;;;;;;28.17;15.70;;;;;;;8.42;61.30;101085.69;8684503;33;20216;-73
2022/03/17 00:06:29;;;;;;;25.67;14.43;;;;;;;8.26;61.77;101086.63;8669636;33;20192;-73
2022/03/17 00:11:32;;;;;;;25.50;14.20;;;;;;;8.30;61.83;101087.31;8659289;33;20145;-73
2022/03/17 00:16:35;;;;;;;29.67;15.48;;;;;;;8.23;62.06;101078.78;8659551;33;20183;-73
2022/03/17 00:21:40;;;;;;;27.40;15.88;;;;;;;8.19;62.32;101071.88;8659984;33;20251;-73
2022/03/17 00:26:43;;;;;;;27.02;15.05;;;;;;;8.05;62.41;101088.75;8659140;33;20418;-73
2022/03/17 00:31:46;;;;;;;25.67;13.27;;;;;;;8.12;62.54;101076.75;8659254;33;20645;-74
2022/03/17 00:36:51;;;;;;;28.25;14.40;;;;;;;7.99;62.77;101077.56;8658205;33;20246;-73
2022/03/17 00:41:54;;;;;;;29.65;14.52;;;;;;;8.06;62.74;101074.41;8658700;33;20681;-73
2022/03/17 00:46:57;;;;;;;29.52;16.13;;;;;;;8.20;62.43;101080.78;8658154;33;20184;-73
2022/03/17 00:52:02;;;;;;;26.98;14.13;;;;;;;8.07;62.88;101076.16;8658649;33;20210;-73
2022/03/17 00:57:06;;;;;;;28.65;16.60;;;;;;;7.87;63.28;101076.47;8658837;33;20253;-73
2022/03/17 01:02:10;;;;;;;29.13;15.45;;;;;;;8.08;62.99;101072.53;8658408;33;20674;-73
2022/03/17 01:07:15;;;;;;;25.67;13.60;;;;;;;8.05;62.97;101069.19;8658898;33;20132;-74
2022/03/17 01:12:18;;;;;;;29.48;15.75;;;;;;;8.06;62.96;101065.53;8658735;33;20203;-74
2022/03/17 01:17:21;;;;;;;27.67;13.90;;;;;;;8.07;63.01;101060.09;8657141;33;20188;-71
2022/03/17 01:22:25;;;;;;;27.55;14.57;;;;;;;8.04;62.99;101065.66;8657503;33;20245;-74
2022/03/17 01:27:29;;;;;;;24.77;15.68;;;;;;;8.10;63.00;101051.88;8657433;33;20415;-73
2022/03/17 01:32:32;;;;;;;28.25;14.98;;;;;;;7.99;63.35;101049.00;8657747;33;20283;-74
2022/03/17 01:37:38;;;;;;;32.08;16.52;;;;;;;8.03;63.22;101042.50;8657293;33;20180;-73
2022/03/17 01:42:41;;;;;;;27.25;15.75;;;;;;;8.03;63.37;101045.19;8657856;33;20595;-74
2022/03/17 01:47:44;;;;;;;28.40;16.27;;;;;;;8.00;63.29;101031.97;8658179;33;20623;-74
2022/03/17 01:52:49;;;;;;;30.67;15.85;;;;;;;8.00;63.36;101037.34;8657784;33;20692;-72
2022/03/17 01:57:52;;;;;;;27.63;16.90;;;;;;;8.01;63.22;101036.41;8656742;33;20192;-72
2022/03/17 02:02:55;;;;;;;27.52;15.18;;;;;;;8.04;63.21;101021.97;8714802;33;20318;-72
2022/03/17 02:07:59;;;;;;;27.27;15.68;;;;;;;7.88;63.76;101001.50;8714882;33;20585;-73
2022/03/17 02:13:12;;;;;;;30.17;16.15;;;;;;;7.66;64.36;101001.03;8714544;33;20198;-75
2022/03/17 02:18:16;;;;;;;29.52;15.88;;;;;;;7.74;64.28;100990.75;8713975;33;20152;-74
2022/03/17 02:28:41;;;;;;;29.02;16.00;;;;;;;8.02;63.64;100973.91;8763896;33;21784;-73
2022/03/17 02:33:44;;;;;;;29.00;15.65;;;;;;;7.87;64.05;100985.50;8779337;33;20202;-73
2022/03/17 02:38:48;;;;;;;28.02;16.20;;;;;;;7.98;63.52;100977.72;8783327;33;20183;-73
2022/03/17 02:43:52;;;;;;;28.80;16.17;;;;;;;7.98;63.60;100974.16;8781669;33;20212;-74
2022/03/17 02:48:55;;;;;;;31.52;17.20;;;;;;;7.95;63.56;100968.06;8778937;33;20533;-74
2022/03/17 02:54:00;;;;;;;28.45;16.67;;;;;;;8.10;63.21;100957.38;8778195;33;20232;-74
2022/03/17 02:59:03;;;;;;;31.02;16.13;;;;;;;8.04;63.45;100945.25;8777173;33;20217;-73
2022/03/17 03:04:06;;;;;;;32.33;17.20;;;;;;;7.85;63.54;100926.78;8777822;33;20225;-74
2022/03/17 03:09:10;;;;;;;28.70;16.33;;;;;;;8.14;62.94;100941.00;8777141;33;20185;-72
2022/03/17 03:14:13;;;;;;;27.65;15.13;;;;;;;8.06;64.60;100945.13;8777643;33;20504;-74
2022/03/17 03:19:16;;;;;;;31.75;18.73;;;;;;;8.07;64.31;100931.66;8776944;33;21094;-74
2022/03/17 03:24:21;;;;;;;30.27;16.75;;;;;;;7.95;64.03;100929.72;8777354;33;20193;-72
2022/03/17 03:29:25;;;;;;;35.22;18.33;;;;;;;8.14;63.19;100937.47;8776243;33;20610;-71
2022/03/17 03:34:29;;;;;;;32.45;17.23;;;;;;;8.09;63.08;100934.22;8776041;33;20314;-72
2022/03/17 03:39:34;;;;;;;30.27;17.42;;;;;;;8.13;62.78;100935.78;8775095;33;20288;-71
2022/03/17 03:44:38;;;;;;;35.08;18.58;;;;;;;8.29;62.36;100947.25;8776200;33;20834;-74
2022/03/17 03:49:42;;;;;;;30.25;17.40;;;;;;;8.34;61.96;100942.47;8775456;33;20240;-75
2022/03/17 03:54:47;;;;;;;29.60;16.42;;;;;;;8.42;61.65;100947.34;8775521;33;20189;-74
2022/03/17 03:59:50;;;;;;;31.40;17.02;;;;;;;8.45;61.55;100959.66;8775611;33;20255;-73
2022/03/17 04:04:53;;;;;;;30.65;17.35;;;;;;;8.39;61.63;100961.78;8776094;33;20865;-73
2022/03/17 04:09:57;;;;;;;33.78;17.98;;;;;;;8.37;61.41;100966.38;8775448;33;20221;-73
2022/03/17 04:15:00;;;;;;;31.23;17.63;;;;;;;8.50;60.99;100969.19;8775396;33;20424;-73
2022/03/17 04:20:05;;;;;;;31.92;17.60;;;;;;;8.52;60.92;100985.13;8774567;33;20154;-73
2022/03/17 04:25:10;;;;;;;32.45;17.90;;;;;;;8.57;60.92;100981.19;8776025;33;20143;-74
2022/03/17 04:30:13;;;;;;;31.10;18.15;;;;;;;8.60;60.72;100988.19;8776574;33;21711;-73
2022/03/17 04:35:16;;;;;;;32.17;18.52;;;;;;;8.52;60.67;100985.97;8776442;33;20171;-74
2022/03/17 04:40:21;;;;;;;34.55;18.88;;;;;;;8.52;59.79;100993.16;8775777;33;20162;-73
2022/03/17 04:45:24;;;;;;;33.88;17.63;;;;;;;8.84;58.73;101004.53;8774535;33;20239;-73
2022/03/17 04:50:27;;;;;;;35.38;19.05;;;;;;;8.97;58.30;101004.59;8774561;33;20243;-74
2022/03/17 04:55:32;;;;;;;37.88;19.48;;;;;;;8.96;58.15;101000.19;8774486;33;20492;-74
2022/03/17 05:00:35;;;;;;;37.25;20.60;;;;;;;9.09;57.80;101000.25;8773873;33;20262;-74
2022/03/17 05:05:38;;;;;;;31.58;18.75;;;;;;;9.11;57.42;101009.06;8774180;33;20259;-73
2022/03/17 05:10:43;;;;;;;36.60;19.77;;;;;;;9.04;57.78;101012.13;8774286;33;20232;-74
2022/03/17 05:15:47;;;;;;;35.83;19.23;;;;;;;8.93;57.77;101021.81;8773071;33;20189;-73
2022/03/17 05:20:50;;;;;;;33.72;19.20;;;;;;;9.08;57.51;101022.66;8774072;33;21687;-73
2022/03/17 05:25:55;;;;;;;31.80;20.40;;;;;;;8.98;57.61;101030.44;8774046;33;20139;-73
2022/03/17 05:30:58;;;;;;;34.28;20.17;;;;;;;8.87;57.72;101023.06;8773797;33;20191;-72
2022/03/17 05:36:05;;;;;;;34.85;19.02;;;;;;;9.02;57.41;101035.50;8772483;33;20277;-73
2022/03/17 05:41:09;;;;;;;37.25;20.10;;;;;;;9.10;57.21;101044.84;8777477;33;20222;-73
2022/03/17 05:46:12;;;;;;;35.50;20.02;;;;;;;9.08;57.26;101044.97;8763505;33;20481;-74
2022/03/17 05:51:16;;;;;;;37.88;21.42;;;;;;;9.09;57.13;101040.47;8774177;33;20123;-73
2022/03/17 05:56:20;;;;;;;36.72;20.58;;;;;;;9.13;56.86;101044.66;8773066;33;20277;-73
2022/03/17 06:01:23;;;;;;;33.45;19.15;;;;;;;9.10;56.92;101059.13;8772636;33;20128;-74
2022/03/17 06:06:27;;;;;;;32.83;18.67;;;;;;;9.06;57.20;101063.81;8772251;33;20255;-73
2022/03/17 06:11:31;;;;;;;33.83;16.88;;;;;;;9.06;57.36;101076.38;8777891;33;20178;-73
2022/03/17 06:16:34;;;;;;;36.15;20.02;;;;;;;9.06;57.61;101079.91;8778456;33;20651;-73
2022/03/17 06:21:37;;;;;;;36.60;20.88;;;;;;;9.17;57.34;101083.72;8778031;33;20267;-73
2022/03/17 06:26:41;;;;;;;35.13;19.73;;;;;;;9.09;57.42;101086.88;8777774;33;20179;-73
2022/03/17 06:31:44;;;;;;;38.35;21.33;;;;;;;9.24;57.18;101091.28;8778154;33;20190;-73
2022/03/17 06:36:47;;;;;;;34.30;19.27;;;;;;;9.16;57.23;101101.63;8777801;33;20653;-73
2022/03/17 06:41:52;;;;;;;32.22;19.55;;;;;;;9.19;57.48;101112.16;8777865;33;20143;-73
2022/03/17 06:46:55;;;;;;;35.58;21.00;;;;;;;9.09;57.74;101118.19;8776478;33;20191;-73
2022/03/17 06:51:58;;;;;;;35.28;20.13;;;;;;;9.18;59.13;101123.81;8778002;33;20270;-73
2022/03/17 06:57:03;;;;;;;37.63;20.00;;;;;;;9.21;58.51;101128.97;8776471;33;20135;-73
2022/03/17 07:02:06;;;;;;;39.63;20.98;;;;;;;9.20;57.81;101143.34;8777761;33;20978;-73
2022/03/17 07:07:10;;;;;;;36.75;19.77;;;;;;;9.15;59.29;101150.81;8776923;33;20189;-73
2022/03/17 07:12:14;;;;;;;36.75;20.90;;;;;;;8.94;61.00;101171.78;8698551;33;20210;-73
2022/03/17 07:17:20;;;;;;;37.13;20.92;;;;;;;8.68;61.91;101183.22;8734078;33;20222;-73
2022/03/17 07:22:24;;;;;;;38.55;22.08;;;;;;;8.49;64.06;101194.19;8722872;33;20191;-73
2022/03/17 07:27:30;;;;;;;43.90;21.60;;;;;;;8.35;66.53;101216.38;8721390;33;20143;-72
2022/03/17 07:32:33;;;;;;;42.95;22.08;;;;;;;7.95;69.42;101235.63;8704762;33;20522;-73
2022/03/17 07:37:36;;;;;;;30.38;16.73;;;;;;;7.57;71.16;101242.22;8699105;33;20451;-73
2022/03/17 07:42:40;;;;;;;42.05;22.73;;;;;;;7.70;72.00;101245.94;8660160;33;20460;-73
2022/03/17 07:48:01;;;;;;;39.33;21.63;;;;;;;7.65;72.90;101264.94;8658196;33;20664;-73
2022/03/17 07:53:04;;;;;;;44.35;23.02;;;;;;;7.61;75.09;101273.19;8661891;33;20149;-73
2022/03/17 07:58:11;;;;;;;43.85;24.05;;;;;;;7.34;77.79;101278.22;8659707;33;20732;-73
2022/03/17 08:03:14;;;;;;;48.00;24.08;;;;;;;7.09;80.71;101290.19;8658934;33;20192;-73
2022/03/17 08:08:18;;;;;;;49.78;24.58;;;;;;;7.13;82.16;101298.91;8658439;33;20278;-74
2022/03/17 08:13:25;;;;;;;43.65;22.40;;;;;;;7.06;83.65;101295.72;8660424;33;20188;-74
2022/03/17 08:18:29;;;;;;;59.03;28.98;;;;;;;7.12;85.25;101295.38;8659979;33;20258;-74
2022/03/17 08:23:32;;;;;;;56.55;27.63;;;;;;;7.15;86.84;101302.38;8707151;33;20444;-74
2022/03/17 08:28:36;;;;;;;54.38;29.83;;;;;;;7.19;87.27;101303.97;8665575;33;20465;-74
2022/03/17 08:33:40;;;;;;;61.50;29.75;;;;;;;7.34;87.69;101321.84;8660574;33;20164;-75
2022/03/17 08:38:43;;;;;;;60.63;30.38;;;;;;;7.33;87.86;101321.94;8657416;33;21513;-75
2022/03/17 08:43:48;;;;;;;63.28;29.60;;;;;;;7.23;88.57;101342.94;8657780;33;20228;-76
2022/03/17 08:54:14;;;;;;;63.08;31.80;;;;;;;7.14;90.42;101379.00;8657892;33;20251;-75
2022/03/17 08:59:19;;;;;;;63.38;33.38;;;;;;;7.06;90.90;101390.06;8657333;33;20741;-75
2022/03/17 09:04:23;;;;;;;58.40;30.08;;;;;;;6.89;92.65;101398.09;8657884;33;20215;-74
2022/03/17 09:09:26;;;;;;;52.67;27.30;;;;;;;6.97;92.95;101421.75;8657254;33;20192;-75
2022/03/17 09:14:31;;;;;;;26.95;15.50;;;;;;;6.67;89.76;101434.75;8634375;33;20199;-75
2022/03/17 09:19:34;;;;;;;20.65;12.38;;;;;;;6.50;89.51;101457.78;8658911;33;20244;-75
2022/03/17 09:24:37;;;;;;;21.92;12.68;;;;;;;6.08;89.39;101453.47;8634357;33;20184;-75
2022/03/17 09:29:42;;;;;;;23.60;12.10;;;;;;;6.45;88.29;101473.16;8658502;33;20545;-75
2022/03/17 09:34:45;;;;;;;21.55;12.43;;;;;;;6.60;87.94;101482.22;8658988;33;20732;-75
2022/03/17 09:39:48;;;;;;;26.23;13.20;;;;;;;6.54;86.59;101495.88;8637023;33;20197;-74
2022/03/17 09:44:53;;;;;;;22.70;12.93;;;;;;;6.16;87.53;101502.00;8659385;33;20244;-74
2022/03/17 09:49:58;;;;;;;25.27;12.90;;;;;;;6.44;86.13;101514.09;8659479;33;20172;-75
2022/03/17 09:55:01;;;;;;;21.30;12.68;;;;;;;6.35;85.85;101520.72;8660045;33;20189;-74
2022/03/17 10:00:09;;;;;;;23.02;13.48;;;;;;;6.39;85.74;101529.50;8715395;33;20192;-75
2022/03/17 10:05:12;;;;;;;22.15;12.23;;;;;;;6.40;85.81;101542.75;8716194;33;20195;-73
2022/03/17 10:10:16;;;;;;;21.58;12.32;;;;;;;6.55;85.25;101548.31;8695815;33;20155;-74
2022/03/17 10:15:20;;;;;;;24.35;12.77;;;;;;;6.34;85.23;101555.50;8670105;33;20168;-76
2022/03/17 10:20:27;;;;;;;20.48;11.48;;;;;;;6.54;85.01;101573.28;8656555;33;20267;-75
2022/03/17 10:25:34;;;;;;;21.20;11.10;;;;;;;6.40;84.03;101576.59;8656813;33;20465;-76
2022/03/17 10:30:40;;;;;;;17.83;11.93;;;;;;;6.74;83.46;101588.41;8679817;33;20450;-75
2022/03/17 10:35:45;;;;;;;19.65;10.65;;;;;;;6.95;82.77;101597.28;8653844;33;20275;-75
2022/03/17 10:41:02;;;;;;;16.38;9.48;;;;;;;6.62;82.17;101611.19;8651614;33;20510;-75
2022/03/17 10:46:09;;;;;;;12.98;8.43;;;;;;;6.73;80.98;101613.38;8654693;33;20172;-74
2022/03/17 10:51:12;;;;;;;9.85;5.45;;;;;;;6.93;78.43;101642.75;8663876;33;20611;-73
2022/03/17 10:56:17;;;;;;;7.85;5.20;;;;;;;7.48;77.48;101647.31;8658249;33;21067;-73
2022/03/17 11:01:39;;;;;;;10.93;5.65;;;;;;;7.32;75.22;101651.66;8684132;33;20468;-73
2022/03/17 11:06:42;;;;;;;5.50;3.95;;;;;;;6.85;77.53;101663.56;8683527;33;20502;-73
2022/03/17 11:11:47;;;;;;;7.05;4.18;;;;;;;6.62;77.77;101675.28;8659321;33;20160;-75
2022/03/17 11:16:52;;;;;;;4.97;3.70;;;;;;;6.79;77.44;101690.56;8723708;33;20195;-76
2022/03/17 11:22:08;;;;;;;10.57;4.82;;;;;;;6.76;77.03;101688.88;8780166;33;20179;-75
2022/03/17 11:27:13;;;;;;;7.85;4.38;;;;;;;7.57;77.17;101702.16;8749617;33;20186;-73
2022/03/17 11:32:29;;;;;;;4.30;3.72;;;;;;;6.83;75.64;101703.72;8777110;33;20179;-73
2022/03/17 11:37:33;;;;;;;5.93;3.75;;;;;;;6.76;76.43;101722.75;8751479;33;20181;-73
2022/03/17 11:42:40;;;;;;;6.38;3.33;;;;;;;7.05;74.25;101721.50;8762899;33;20195;-73
2022/03/17 11:47:47;;;;;;;6.55;3.47;;;;;;;7.25;72.84;101739.28;8776849;33;21106;-74
2022/03/17 11:53:20;;;;;;;5.00;3.55;;;;;;;7.49;73.35;101737.28;8775177;33;20303;-74
2022/03/17 11:58:29;;;;;;;4.10;2.95;;;;;;;7.14;71.47;101742.44;8747109;33;20230;-74
2022/03/17 12:03:38;;;;;;;4.65;2.72;;;;;;;7.21;71.63;101743.91;8750014;33;20474;-74
2022/03/17 12:08:43;;;;;;;4.65;2.83;;;;;;;7.32;72.62;101759.44;8773360;33;20186;-72
2022/03/17 12:14:17;;;;;;;5.60;2.60;;;;;;;7.17;71.99;101763.69;8775295;33;20228;-74
2022/03/17 12:19:34;;;;;;;6.32;3.05;;;;;;;7.43;72.13;101773.22;8798457;33;20613;-75
2022/03/17 12:24:46;;;;;;;8.95;3.13;;;;;;;8.10;72.21;101787.88;8779417;33;20183;-74
2022/03/17 12:29:57;;;;;;;5.82;2.70;;;;;;;8.07;70.85;101782.69;8773243;33;20273;-73
2022/03/17 12:35:02;;;;;;;6.70;2.55;;;;;;;7.88;69.20;101793.38;8777654;33;20189;-73
2022/03/17 12:40:09;;;;;;;5.10;2.85;;;;;;;8.08;70.36;101802.28;8777204;33;20929;-72
2022/03/17 12:45:15;;;;;;;6.47;3.50;;;;;;;8.10;69.72;101817.31;8776020;33;21607;-75
2022/03/17 12:50:20;;;;;;;8.13;3.63;;;;;;;7.95;67.53;101816.25;8773441;33;20183;-73
2022/03/17 12:55:26;;;;;;;13.50;4.75;;;;;;;7.77;68.73;101827.81;8775835;33;20183;-73
2022/03/17 13:00:30;;;;;;;11.20;3.67;;;;;;;7.99;68.08;101835.69;8750474;33;20266;-73
2022/03/17 13:16:16;;;;;;;9.18;3.50;;;;;;;8.14;66.51;101851.00;8776782;33;20601;-75
2022/03/17 13:21:23;;;;;;;11.63;4.60;;;;;;;8.06;66.84;101855.84;8774856;33;20228;-72
2022/03/17 13:26:28;;;;;;;6.88;3.05;;;;;;;8.32;66.49;101865.34;8782005;33;20131;-74
2022/03/17 13:31:36;;;;;;;7.07;2.80;;;;;;;8.09;62.61;101870.91;8811149;33;20170;-73
2022/03/17 13:36:57;;;;;;;7.00;3.05;;;;;;;8.60;64.03;101877.44;8805065;33;20293;-73
2022/03/17 13:42:06;;;;;;;8.27;2.53;;;;;;;9.13;64.58;101883.72;8774034;33;20174;-73
2022/03/17 13:47:14;;;;;;;7.63;2.90;;;;;;;8.84;63.82;101886.06;8772418;33;20515;-73
2022/03/17 13:52:21;;;;;;;7.95;2.58;;;;;;;8.65;62.86;101898.63;8775294;33;20259;-73
2022/03/17 13:57:25;;;;;;;7.95;2.65;;;;;;;7.93;64.89;101894.88;8772887;33;20147;-73
2022/03/17 14:02:28;;;;;;;9.60;3.00;;;;;;;7.76;65.33;101908.97;8774260;33;21062;-73
2022/03/17 14:07:32;;;;;;;7.32;2.75;;;;;;;7.99;64.48;101907.09;8775597;33;20330;-73
2022/03/17 14:12:36;;;;;;;9.55;3.00;;;;;;;8.10;63.33;101908.31;8773832;33;20691;-73
2022/03/17 14:17:39;;;;;;;9.00;3.63;;;;;;;8.64;62.24;101923.66;8773212;33;21817;-72
2022/03/17 14:28:04;;;;;;;10.18;2.83;;;;;;;8.58;60.77;101951.63;8773608;33;20684;-73
2022/03/17 14:33:07;;;;;;;7.63;2.60;;;;;;;8.99;60.08;101941.56;8777955;33;20173;-73
2022/03/17 14:38:11;;;;;;;6.38;3.20;;;;;;;9.05;59.18;101956.47;8777928;33;20131;-72
2022/03/17 14:43:15;;;;;;;11.43;2.60;;;;;;;8.88;59.49;101969.84;8778566;33;20140;-73
2022/03/17 14:48:18;;;;;;;5.78;2.53;;;;;;;9.21;59.61;101972.66;8777139;33;20235;-73
2022/03/17 14:53:22;;;;;;;9.88;3.70;;;;;;;9.10;58.40;101969.66;8777491;33;20163;-73
2022/03/17 14:58:31;;;;;;;7.93;2.63;;;;;;;9.14;58.54;101976.63;8779092;33;20617;-73
2022/03/17 15:03:34;;;;;;;3.53;1.92;;;;;;;9.11;59.27;101985.69;8779813;33;20237;-73
2022/03/17 15:08:39;;;;;;;7.15;2.10;;;;;;;9.02;58.33;101984.34;8779584;33;20533;-73
2022/03/17 15:13:43;;;;;;;3.80;2.38;;;;;;;8.88;58.43;101984.09;8777262;33;20177;-73
2022/03/17 15:18:47;;;;;;;10.02;2.45;;;;;;;9.13;58.38;101999.00;8777327;33;20274;-73
2022/03/17 15:23:51;;;;;;;7.93;2.20;;;;;;;9.14;58.31;102003.44;8779106;33;20278;-73
2022/03/17 15:34:16;;;;;;;8.00;2.75;;;;;;;9.17;58.21;102003.28;8775503;33;20909;-73
2022/03/17 15:39:20;;;;;;;5.45;2.42;;;;;;;9.13;58.55;102010.59;8772408;33;20239;-74
2022/03/17 15:44:23;;;;;;;7.47;3.17;;;;;;;9.11;58.59;102020.53;8773559;33;20818;-74
2022/03/17 15:49:26;;;;;;;14.43;2.70;;;;;;;8.86;57.64;102026.22;8774470;33;20201;-74
2022/03/17 15:54:31;;;;;;;6.95;2.95;;;;;;;8.90;58.82;102032.28;8775032;33;20143;-73
2022/03/17 15:59:34;;;;;;;9.23;2.60;;;;;;;8.94;59.37;102040.13;8775443;33;20183;-74
2022/03/17 16:04:38;;;;;;;5.32;2.10;;;;;;;8.92;58.69;102039.31;8774419;33;20277;-73
2022/03/17 16:15:04;;;;;;;6.28;2.58;;;;;;;8.64;59.03;102061.19;8749131;33;20155;-73
2022/03/17 16:20:09;;;;;;;6.57;2.67;;;;;;;8.58;58.32;102081.09;8770162;33;20698;-73
2022/03/17 16:25:14;;;;;;;7.10;2.92;;;;;;;8.51;58.77;102076.09;8774267;33;20244;-74
2022/03/17 16:30:17;;;;;;;7.50;3.53;;;;;;;8.49;59.16;102086.00;8773885;33;20567;-73
2022/03/17 16:35:21;;;;;;;5.68;2.58;;;;;;;8.34;59.40;102092.88;8770466;33;20190;-74
2022/03/17 16:40:25;;;;;;;8.25;2.60;;;;;;;8.33;60.08;102099.16;8774189;33;20239;-74
2022/03/17 16:45:31;;;;;;;12.68;8.75;;;;;;;8.28;60.83;102107.41;8773502;33;20151;-74
2022/03/17 16:50:35;;;;;;;7.93;5.60;;;;;;;8.23;60.89;102105.84;8774068;33;20245;-74
2022/03/17 16:55:40;;;;;;;10.98;6.65;;;;;;;8.12;61.33;102117.94;8776102;33;20179;-74
2022/03/17 17:00:43;;;;;;;9.95;3.97;;;;;;;8.01;61.29;102141.59;8786225;33;20298;-74
2022/03/17 17:05:47;;;;;;;7.95;3.60;;;;;;;7.84;61.89;102136.94;8728393;33;20144;-72
2022/03/17 17:10:52;;;;;;;9.73;3.75;;;;;;;7.78;62.73;102152.38;8774641;33;21057;-75
2022/03/17 17:15:58;;;;;;;8.68;3.78;;;;;;;7.78;63.17;102147.03;8773899;33;20230;-74
2022/03/17 17:21:01;;;;;;;7.85;3.08;;;;;;;7.76;62.37;102149.75;8768869;33;20182;-74
2022/03/17 17:31:26;;;;;;;8.80;4.10;;;;;;;7.49;62.34;102163.34;8771197;33;20142;-74
2022/03/17 17:36:30;;;;;;;7.70;3.50;;;;;;;7.44;62.77;102170.69;8774870;33;20178;-74
2022/03/17 17:41:35;;;;;;;10.00;3.78;;;;;;;7.36;62.91;102178.13;8775228;33;20218;-74
2022/03/17 17:46:39;;;;;;;13.40;4.18;;;;;;;7.27;63.27;102187.38;8772361;33;20282;-74
2022/03/17 17:51:42;;;;;;;10.65;5.35;;;;;;;7.17;63.41;102199.34;8734394;33;20912;-74
2022/03/17 17:56:47;;;;;;;9.10;4.88;;;;;;;7.08;63.68;102206.84;8746422;33;20186;-74
2022/03/17 18:01:50;;;;;;;5.80;4.40;;;;;;;6.99;64.06;102213.38;8760060;33;20429;-74
2022/03/17 18:06:53;;;;;;;10.00;5.25;;;;;;;6.89;64.50;102220.03;8777745;33;20452;-74
2022/03/17 18:11:59;;;;;;;9.10;4.53;;;;;;;6.89;64.30;102228.03;8777979;33;20152;-74
2022/03/17 18:17:02;;;;;;;18.23;6.03;;;;;;;6.90;64.15;102227.09;8773490;33;21193;-74
2022/03/17 18:22:05;;;;;;;12.73;5.47;;;;;;;6.88;64.41;102237.81;8777276;33;20159;-72
2022/03/17 18:27:14;;;;;;;16.02;6.57;;;;;;;6.74;64.94;102232.94;8777788;33;20191;-73
2022/03/17 18:32:17;;;;;;;17.23;11.98;;;;;;;6.57;65.66;102248.69;8779626;33;21150;-75
2022/03/17 18:37:20;;;;;;;13.90;10.05;;;;;;;6.47;66.04;102261.47;8778701;33;20337;-75
2022/03/17 18:42:25;;;;;;;20.20;10.45;;;;;;;6.37;66.67;102270.75;8779558;33;20146;-72
2022/03/17 18:47:28;;;;;;;28.42;15.40;;;;;;;6.33;66.73;102271.75;8778692;33;20223;-73
2022/03/17 18:52:31;;;;;;;18.65;11.65;;;;;;;6.28;67.16;102273.69;8779161;33;20686;-73
2022/03/17 18:57:36;;;;;;;18.27;10.43;;;;;;;6.17;67.36;102290.06;8779449;33;21861;-72
2022/03/17 19:02:39;;;;;;;23.38;10.60;;;;;;;6.22;67.63;102303.28;8777925;33;20565;-71
2022/03/17 19:07:43;;;;;;;16.60;9.30;;;;;;;6.14;67.80;102316.84;8778285;33;20139;-73
2022/03/17 19:12:47;;;;;;;19.35;9.38;;;;;;;6.04;67.94;102326.09;8779019;33;21609;-72
2022/03/17 19:17:50;;;;;;;18.20;8.85;;;;;;;6.07;68.03;102326.00;8776122;33;20160;-72
2022/03/17 19:22:54;;;;;;;19.60;10.25;;;;;;;6.03;67.99;102333.19;8777079;33;20182;-73
2022/03/17 19:27:59;;;;;;;23.15;12.85;;;;;;;5.90;68.30;102350.53;8777115;33;20148;-72
2022/03/17 19:33:02;;;;;;;21.63;10.40;;;;;;;5.88;68.59;102358.56;8775982;33;20191;-74
2022/03/17 19:38:06;;;;;;;21.17;11.75;;;;;;;5.83;68.92;102360.50;8772177;33;20197;-74
2022/03/17 19:43:11;;;;;;;28.10;14.82;;;;;;;5.73;68.85;102375.00;8796677;33;20694;-73
2022/03/17 19:48:14;;;;;;;25.58;13.38;;;;;;;5.61;69.11;102381.56;8776509;33;20143;-72
2022/03/17 19:53:17;;;;;;;23.88;12.73;;;;;;;5.48;69.50;102389.03;8782795;33;20167;-73
2022/03/17 19:58:22;;;;;;;22.85;11.35;;;;;;;5.40;69.88;102403.50;8782955;33;20194;-74
2022/03/17 20:03:25;;;;;;;23.67;11.98;;;;;;;5.33;70.18;102399.28;8764918;33;20830;-73
2022/03/17 20:08:29;;;;;;;20.13;11.75;;;;;;;5.30;70.35;102412.69;8775868;33;20443;-73
2022/03/17 20:13:43;;;;;;;19.92;11.82;;;;;;;5.19;70.66;102424.50;8775445;33;20180;-73
2022/03/17 20:18:49;;;;;;;27.48;13.50;;;;;;;5.16;70.97;102434.38;8772274;33;20688;-74
2022/03/17 20:23:53;;;;;;;20.73;12.65;;;;;;;5.10;71.07;102432.72;8776042;33;20190;-74
2022/03/17 20:29:00;;;;;;;21.80;11.75;;;;;;;5.04;71.27;102443.53;8771202;33;20582;-73
2022/03/17 20:34:26;;;;;;;20.27;13.35;;;;;;;4.99;71.35;102448.97;8775390;33;20179;-75
2022/03/17 20:39:29;;;;;;;23.17;13.73;;;;;;;4.94;71.60;102458.84;8776605;33;21964;-73
2022/03/17 20:44:34;;;;;;;20.88;13.98;;;;;;;4.82;71.59;102457.31;8776044;33;20309;-74
2022/03/17 20:49:37;;;;;;;19.30;13.35;;;;;;;4.73;72.04;102464.69;8775954;33;20190;-74
2022/03/17 20:54:41;;;;;;;21.17;13.27;;;;;;;4.75;72.38;102470.84;8775829;33;20183;-74
2022/03/17 20:59:46;;;;;;;24.23;14.40;;;;;;;4.71;72.23;102478.00;8775164;33;20178;-73
2022/03/17 21:04:50;;;;;;;23.23;11.90;;;;;;;4.57;72.25;102481.00;8776043;33;20273;-73
2022/03/17 21:09:53;;;;;;;20.30;12.10;;;;;;;4.46;72.57;102485.69;8776614;33;20558;-74
2022/03/17 21:14:58;;;;;;;17.55;11.88;;;;;;;4.43;73.09;102496.41;8775888;33;20195;-73
2022/03/17 21:20:02;;;;;;;18.60;12.13;;;;;;;4.43;73.26;102507.03;8775242;33;20662;-73
2022/03/17 21:25:07;;;;;;;28.95;14.93;;;;;;;4.37;73.34;102513.38;8774876;33;20231;-74
2022/03/17 21:30:14;;;;;;;38.50;20.30;;;;;;;4.25;73.59;102512.75;8775316;33;20186;-74
2022/03/17 21:35:17;;;;;;;33.55;19.35;;;;;;;4.20;73.72;102517.28;8774466;33;20199;-74
2022/03/17 21:40:20;;;;;;;31.52;19.13;;;;;;;4.20;74.05;102525.25;8773997;33;20182;-72
2022/03/17 21:45:24;;;;;;;30.40;17.02;;;;;;;4.25;74.10;102539.34;8774009;33;20183;-73
2022/03/17 21:50:29;;;;;;;25.92;15.52;;;;;;;4.26;74.23;102538.47;8773749;33;20178;-72
2022/03/17 21:55:32;;;;;;;27.38;14.13;;;;;;;4.17;74.26;102537.75;8773397;33;20206;-73
2022/03/17 22:00:38;;;;;;;24.75;14.60;;;;;;;4.07;74.99;102553.91;8774086;33;20296;-73
2022/03/17 22:05:42;;;;;;;26.40;15.32;;;;;;;4.09;75.01;102554.78;8774074;33;20776;-73
2022/03/17 22:10:45;;;;;;;23.08;15.15;;;;;;;3.91;74.69;102553.31;8774548;33;20179;-74
2022/03/17 22:15:49;;;;;;;23.63;14.18;;;;;;;3.28;77.88;102570.34;8773095;33;20179;-74
2022/03/17 22:20:53;;;;;;;20.70;14.48;;;;;;;3.40;77.56;102577.22;8773902;33;20148;-73
2022/03/17 22:25:56;;;;;;;22.38;13.65;;;;;;;3.48;77.31;102570.91;8772434;33;21674;-74
2022/03/17 22:31:01;;;;;;;24.45;13.63;;;;;;;3.54;77.27;102584.97;8774684;33;20175;-74
2022/03/17 22:36:08;;;;;;;19.77;13.30;;;;;;;3.60;77.04;102583.13;8776740;33;20183;-74
2022/03/17 22:46:33;;;;;;;20.88;13.98;;;;;;;3.54;76.20;102588.53;8772462;33;20671;-73
2022/03/17 22:51:39;;;;;;;24.70;14.48;;;;;;;3.46;76.28;102591.31;8775684;33;20654;-73
2022/03/17 22:56:42;;;;;;;25.17;15.07;;;;;;;3.53;76.18;102602.72;8776582;33;20248;-74
2022/03/17 23:01:47;;;;;;;24.25;14.85;;;;;;;3.54;76.19;102603.59;8777824;33;20151;-73
2022/03/17 23:06:54;;;;;;;26.45;14.60;;;;;;;3.53;76.58;102609.81;8778115;33;20406;-73
2022/03/17 23:11:57;;;;;;;26.70;14.93;;;;;;;3.44;76.17;102611.72;8777610;33;20153;-73
2022/03/17 23:17:03;;;;;;;26.27;16.02;;;;;;;3.35;76.44;102609.22;8777522;33;20750;-73
2022/03/17 23:22:06;;;;;;;21.92;13.43;;;;;;;3.29;76.25;102614.59;8777356;33;20182;-73
2022/03/17 23:27:10;;;;;;;24.30;15.00;;;;;;;3.22;76.59;102613.81;8776707;33;20190;-74
2022/03/17 23:32:15;;;;;;;23.02;15.35;;;;;;;3.16;76.58;102618.38;8778391;33;20239;-73
2022/03/17 23:37:18;;;;;;;36.42;21.38;;;;;;;2.99;76.79;102619.47;8778932;33;20187;-73
2022/03/17 23:42:23;;;;;;;35.58;19.25;;;;;;;2.90;76.95;102616.06;8779197;33;20202;-74
2022/03/17 23:47:28;;;;;;;31.98;18.13;;;;;;;2.94;77.38;102617.78;8776832;33;20179;-73
2022/03/17 23:52:31;;;;;;;24.98;16.33;;;;;;;3.08;77.51;102628.22;8776870;33;20182;-73
2022/03/17 23:57:35;;;;;;;25.98;15.80;;;;;;;3.15;76.99;102641.38;8776130;33;20191;-73
